createdAt,value
2022-09-21T00:00:38.396Z,99.90
2022-09-21T00:03:05.056Z,99.90
2022-09-21T00:05:35.773Z,99.90
2022-09-21T00:08:06.238Z,99.90
2022-09-21T00:10:34.995Z,99.90
2022-09-21T00:13:02.518Z,99.90
2022-09-21T00:15:30.288Z,99.90
2022-09-21T00:18:01.117Z,99.90
2022-09-21T00:20:29.892Z,99.90
2022-09-21T00:22:58.983Z,99.90
2022-09-21T00:25:28.370Z,99.90
2022-09-21T00:27:55.331Z,99.90
2022-09-21T00:30:24.342Z,99.90
2022-09-21T00:32:53.016Z,99.90
2022-09-21T00:35:22.272Z,99.90
2022-09-21T00:37:51.199Z,99.90
2022-09-21T00:40:18.029Z,99.90
2022-09-21T00:42:51.078Z,99.90
2022-09-21T00:48:14.097Z,99.90
2022-09-21T00:50:48.528Z,99.90
2022-09-21T00:53:21.214Z,99.90
2022-09-21T00:55:52.128Z,99.90
2022-09-21T00:58:24.882Z,99.90
2022-09-21T01:00:51.755Z,99.90
2022-09-21T01:03:22.177Z,99.90
2022-09-21T01:05:49.865Z,99.90
2022-09-21T01:08:20.250Z,99.90
2022-09-21T01:11:20.191Z,99.90
2022-09-21T01:13:56.162Z,99.90
2022-09-21T01:16:25.712Z,99.90
2022-09-21T01:19:26.849Z,99.90
2022-09-21T01:22:32.198Z,99.90
2022-09-21T01:25:32.367Z,99.90
2022-09-21T01:28:21.057Z,99.90
2022-09-21T01:36:37.431Z,99.90
2022-09-21T01:39:14.189Z,99.90
2022-09-21T01:41:43.460Z,99.90
2022-09-21T01:44:17.276Z,99.90
2022-09-21T01:46:46.024Z,99.90
2022-09-21T01:49:22.858Z,99.90
2022-09-21T01:51:57.684Z,99.90
2022-09-21T01:54:33.564Z,99.90
2022-09-21T01:57:20.505Z,99.90
2022-09-21T01:59:59.300Z,99.90
2022-09-21T02:02:41.579Z,99.90
2022-09-21T02:05:10.054Z,99.90
2022-09-21T02:07:38.845Z,99.90
2022-09-21T02:10:08.805Z,99.90
2022-09-21T02:12:43.441Z,99.90
2022-09-21T02:15:12.632Z,99.90
2022-09-21T02:18:10.442Z,99.90
2022-09-21T02:20:45.715Z,99.90
2022-09-21T02:23:18.320Z,99.90
2022-09-21T02:26:15.425Z,99.90
2022-09-21T02:28:45.176Z,99.90
2022-09-21T02:31:35.150Z,99.90
2022-09-21T02:34:02.232Z,99.90
2022-09-21T02:36:56.202Z,99.90
2022-09-21T02:40:03.618Z,99.90
2022-09-21T02:42:34.083Z,99.90
2022-09-21T02:45:09.661Z,99.90
2022-09-21T02:47:51.756Z,99.90
2022-09-21T02:50:25.060Z,99.90
2022-09-21T02:52:54.164Z,99.90
2022-09-21T02:55:22.327Z,99.90
2022-09-21T02:57:50.274Z,99.90
2022-09-21T03:00:17.238Z,99.90
2022-09-21T03:02:44.687Z,99.90
2022-09-21T03:05:15.902Z,99.90
2022-09-21T03:07:42.539Z,99.90
2022-09-21T03:10:09.813Z,99.90
2022-09-21T03:12:36.710Z,99.90
2022-09-21T03:15:05.420Z,99.90
2022-09-21T03:17:36.723Z,99.90
2022-09-21T03:20:03.658Z,99.90
2022-09-21T03:22:30.217Z,99.90
2022-09-21T03:24:56.873Z,99.90
2022-09-21T03:27:28.824Z,99.90
2022-09-21T03:29:58.857Z,99.90
2022-09-21T03:32:30.763Z,99.90
2022-09-21T03:34:57.351Z,99.90
2022-09-21T03:37:26.247Z,99.90
2022-09-21T03:39:55.280Z,99.90
2022-09-21T03:42:24.017Z,99.90
2022-09-21T03:44:50.688Z,99.90
2022-09-21T03:47:19.962Z,99.90
2022-09-21T03:49:48.345Z,99.90
2022-09-21T03:52:14.891Z,99.90
2022-09-21T03:54:41.840Z,99.90
2022-09-21T03:57:16.687Z,99.90
2022-09-21T03:59:43.313Z,99.90
2022-09-21T04:02:12.466Z,99.90
2022-09-21T04:04:41.387Z,99.90
2022-09-21T04:07:10.303Z,99.90
2022-09-21T04:15:41.368Z,99.90
2022-09-21T04:18:11.310Z,99.90
2022-09-21T04:20:38.533Z,99.90
2022-09-21T04:23:09.114Z,99.90
2022-09-21T04:25:43.034Z,99.90
2022-09-21T04:28:09.595Z,99.90
2022-09-21T04:30:37.970Z,99.90
2022-09-21T04:33:05.241Z,99.90
2022-09-21T04:35:32.062Z,99.90
2022-09-21T04:38:01.206Z,99.90
2022-09-21T04:40:30.376Z,99.90
2022-09-21T04:43:05.520Z,99.90
2022-09-21T04:45:40.489Z,99.90
2022-09-21T04:48:14.503Z,99.90
2022-09-21T04:50:41.098Z,99.90
2022-09-21T04:53:09.598Z,99.90
2022-09-21T04:55:36.152Z,99.90
2022-09-21T04:58:06.426Z,99.90
2022-09-21T05:00:35.032Z,99.90
2022-09-21T05:03:04.683Z,99.90
2022-09-21T05:08:44.255Z,99.90
2022-09-21T05:11:20.617Z,99.90
2022-09-21T05:13:47.435Z,99.90
2022-09-21T05:16:15.301Z,99.90
2022-09-21T05:18:42.124Z,99.90
2022-09-21T05:21:13.302Z,99.90
2022-09-21T05:23:40.125Z,99.90
2022-09-21T05:26:09.182Z,99.90
2022-09-21T05:28:39.917Z,99.90
2022-09-21T05:31:35.591Z,99.90
2022-09-21T05:34:18.469Z,99.90
2022-09-21T05:37:25.781Z,99.90
2022-09-21T05:39:52.896Z,99.90
2022-09-21T05:42:20.059Z,99.90
2022-09-21T05:44:50.607Z,99.90
2022-09-21T05:47:44.071Z,99.90
2022-09-21T05:50:21.499Z,99.90
2022-09-21T05:53:09.235Z,99.90
2022-09-21T05:56:01.578Z,99.90
2022-09-21T05:58:54.693Z,99.90
2022-09-21T06:01:53.956Z,99.90
2022-09-21T06:04:24.675Z,99.90
2022-09-21T06:06:53.765Z,99.90
2022-09-21T06:09:20.675Z,99.90
2022-09-21T06:11:47.672Z,99.90
2022-09-21T06:14:16.425Z,99.90
2022-09-21T06:16:45.562Z,99.90
2022-09-21T06:19:13.016Z,99.90
2022-09-21T06:21:41.870Z,99.90
2022-09-21T06:24:08.766Z,99.90
2022-09-21T06:26:37.755Z,99.90
2022-09-21T06:29:04.500Z,99.90
2022-09-21T06:31:31.117Z,99.90
2022-09-21T06:33:57.738Z,99.90
2022-09-21T06:36:24.312Z,99.90
2022-09-21T06:38:53.522Z,99.90
2022-09-21T06:41:21.400Z,99.90
2022-09-21T06:43:52.554Z,99.90
2022-09-21T06:46:19.311Z,99.90
2022-09-21T06:48:47.980Z,99.90
2022-09-21T06:51:14.735Z,99.90
2022-09-21T06:53:45.202Z,99.90
2022-09-21T06:56:12.032Z,99.90
2022-09-21T06:58:39.090Z,99.90
2022-09-21T07:01:07.642Z,99.90
2022-09-21T07:03:35.355Z,99.90
2022-09-21T07:06:08.078Z,99.90
2022-09-21T07:11:23.230Z,99.90
2022-09-21T07:13:49.979Z,99.90
2022-09-21T07:16:17.576Z,99.90
2022-09-21T07:18:44.524Z,99.90
2022-09-21T07:21:14.067Z,99.90
2022-09-21T07:23:41.855Z,99.90
2022-09-21T07:26:12.770Z,99.90
2022-09-21T07:28:39.490Z,99.90
2022-09-21T07:31:22.200Z,99.90
2022-09-21T07:33:48.967Z,99.90
2022-09-21T07:36:19.893Z,99.90
2022-09-21T07:38:48.933Z,99.90
2022-09-21T07:41:15.516Z,99.90
2022-09-21T07:43:42.220Z,99.90
2022-09-21T07:46:11.236Z,99.90
2022-09-21T07:48:39.272Z,99.90
2022-09-21T07:51:08.783Z,99.90
2022-09-21T07:53:39.756Z,99.90
2022-09-21T07:56:09.724Z,99.90
2022-09-21T07:58:57.178Z,99.90
2022-09-21T08:01:24.988Z,99.90
2022-09-21T08:03:53.513Z,99.90
2022-09-21T08:06:24.119Z,99.90
2022-09-21T08:08:57.425Z,99.90
2022-09-21T08:11:25.983Z,99.90
2022-09-21T08:14:04.926Z,99.90
2022-09-21T08:16:34.406Z,99.90
2022-09-21T08:19:02.421Z,99.90
2022-09-21T08:21:29.192Z,99.90
2022-09-21T08:23:56.887Z,99.90
2022-09-21T08:26:24.755Z,99.90
2022-09-21T08:28:52.662Z,99.90
2022-09-21T08:31:23.517Z,99.90
2022-09-21T08:33:51.381Z,99.90
2022-09-21T08:36:20.363Z,99.90
2022-09-21T08:38:47.641Z,99.90
2022-09-21T08:41:20.905Z,99.90
2022-09-21T08:44:09.918Z,99.90
2022-09-21T08:46:39.651Z,99.90
2022-09-21T08:49:20.750Z,99.90
2022-09-21T08:52:02.427Z,99.90
2022-09-21T08:54:48.821Z,99.90
2022-09-21T08:57:16.856Z,99.90
2022-09-21T08:59:48.340Z,99.90
2022-09-21T09:02:29.820Z,99.90
2022-09-21T09:05:15.078Z,99.90
2022-09-21T09:08:09.929Z,99.90
2022-09-21T09:11:06.037Z,99.90
2022-09-21T09:14:10.371Z,99.90
2022-09-21T09:16:49.127Z,99.90
2022-09-21T09:19:20.784Z,99.90
2022-09-21T09:21:51.123Z,99.90
2022-09-21T09:24:36.243Z,99.90
2022-09-21T09:27:14.693Z,99.90
2022-09-21T09:29:51.625Z,99.90
2022-09-21T09:32:19.063Z,99.90
2022-09-21T09:35:04.844Z,99.90
2022-09-21T09:37:41.895Z,99.90
2022-09-21T09:40:12.693Z,99.90
2022-09-21T09:42:59.206Z,99.90
2022-09-21T09:46:09.971Z,99.90
2022-09-21T09:48:53.350Z,99.90
2022-09-21T09:51:23.269Z,99.90
2022-09-21T09:53:51.161Z,99.90
2022-09-21T09:56:18.620Z,99.90
2022-09-21T09:59:07.452Z,99.90
2022-09-21T10:01:48.248Z,99.90
2022-09-21T10:04:16.882Z,99.90
2022-09-21T10:06:46.789Z,99.90
2022-09-21T10:09:25.615Z,99.90
2022-09-21T10:11:57.065Z,99.90
2022-09-21T10:14:26.235Z,99.90
2022-09-21T10:16:54.882Z,99.90
2022-09-21T10:19:24.633Z,99.90
2022-09-21T10:21:59.288Z,99.90
2022-09-21T10:24:36.623Z,99.90
2022-09-21T10:27:16.934Z,99.90
2022-09-21T10:29:48.767Z,99.90
2022-09-21T10:32:18.186Z,99.90
2022-09-21T10:35:20.673Z,99.90
2022-09-21T10:37:52.049Z,99.90
2022-09-21T10:40:18.885Z,99.90
2022-09-21T10:42:50.236Z,99.90
2022-09-21T10:45:20.433Z,99.90
2022-09-21T10:48:09.089Z,99.90
2022-09-21T10:50:40.791Z,99.90
2022-09-21T10:53:14.029Z,99.90
2022-09-21T10:56:14.525Z,99.90
2022-09-21T10:59:21.119Z,99.90
2022-09-21T11:01:55.994Z,99.90
2022-09-21T11:04:50.096Z,99.90
2022-09-21T11:07:21.943Z,99.90
2022-09-21T11:09:59.182Z,99.90
2022-09-21T11:12:50.474Z,99.90
2022-09-21T11:15:52.385Z,99.90
2022-09-21T11:18:53.904Z,99.90
2022-09-21T11:22:15.899Z,99.90
2022-09-21T11:24:54.227Z,99.90
2022-09-21T11:27:35.241Z,99.90
2022-09-21T11:30:12.621Z,99.90
2022-09-21T11:33:01.999Z,99.90
2022-09-21T11:35:48.083Z,99.90
2022-09-21T11:38:33.635Z,99.90
2022-09-21T11:41:38.788Z,99.00
2022-09-21T11:44:28.680Z,99.00
2022-09-21T11:47:33.950Z,96.20
2022-09-21T11:50:29.627Z,95.70
2022-09-21T11:53:13.649Z,96.90
2022-09-21T11:56:05.152Z,95.30
2022-09-21T11:58:36.594Z,94.70
2022-09-21T12:01:27.886Z,93.90
2022-09-21T12:04:20.180Z,93.50
2022-09-21T12:07:04.803Z,93.80
2022-09-21T12:09:55.114Z,93.60
2022-09-21T12:12:59.926Z,94.50
2022-09-21T12:19:23.818Z,91.80
2022-09-21T12:22:08.627Z,92.10
2022-09-21T12:24:45.193Z,94.40
2022-09-21T12:27:43.063Z,93.60
2022-09-21T12:30:21.412Z,93.70
2022-09-21T12:33:15.607Z,93.30
2022-09-21T12:35:58.675Z,93.00
2022-09-21T12:38:57.904Z,91.60
2022-09-21T12:42:01.244Z,92.10
2022-09-21T12:44:33.593Z,91.80
2022-09-21T12:47:23.095Z,91.30
2022-09-21T12:50:18.652Z,91.90
2022-09-21T12:53:19.178Z,92.00
2022-09-21T12:56:23.286Z,92.60
2022-09-21T12:59:01.220Z,92.60
2022-09-21T13:01:42.723Z,90.90
2022-09-21T13:05:01.357Z,91.30
2022-09-21T13:08:05.743Z,91.50
2022-09-21T13:10:40.680Z,93.00
2022-09-21T13:13:58.816Z,92.80
2022-09-21T13:16:41.942Z,93.00
2022-09-21T13:19:12.909Z,94.00
2022-09-21T13:21:46.814Z,92.10
2022-09-21T13:24:38.994Z,93.40
2022-09-21T13:27:08.480Z,93.00
2022-09-21T13:29:43.306Z,92.00
2022-09-21T13:32:09.950Z,92.10
2022-09-21T13:34:38.353Z,91.00
2022-09-21T13:37:13.589Z,90.50
2022-09-21T13:40:00.436Z,91.20
2022-09-21T13:42:48.484Z,92.00
2022-09-21T13:45:15.514Z,89.10
2022-09-21T13:47:45.041Z,91.00
2022-09-21T13:50:25.974Z,89.80
2022-09-21T13:52:58.443Z,90.90
2022-09-21T13:55:38.471Z,90.70
2022-09-21T13:58:31.861Z,89.80
2022-09-21T14:01:29.265Z,88.00
2022-09-21T14:04:02.605Z,86.40
2022-09-21T14:06:38.158Z,84.40
2022-09-21T14:09:19.470Z,83.30
2022-09-21T14:12:12.496Z,84.70
2022-09-21T14:14:41.405Z,84.00
2022-09-21T14:17:39.995Z,83.90
2022-09-21T14:20:30.187Z,81.00
2022-09-21T14:23:53.313Z,81.20
2022-09-21T14:26:32.455Z,81.80
2022-09-21T14:29:25.618Z,83.80
2022-09-21T14:31:56.488Z,83.10
2022-09-21T14:34:28.647Z,83.70
2022-09-21T14:37:21.597Z,81.60
2022-09-21T14:39:53.039Z,81.00
2022-09-21T14:42:31.522Z,82.40
2022-09-21T14:45:03.239Z,81.40
2022-09-21T14:47:55.916Z,82.90
2022-09-21T14:50:28.160Z,85.00
2022-09-21T14:53:18.761Z,82.90
2022-09-21T14:56:21.739Z,85.30
2022-09-21T14:59:07.223Z,82.40
2022-09-21T15:01:37.690Z,79.90
2022-09-21T15:04:29.741Z,78.90
2022-09-21T15:07:39.458Z,79.50
2022-09-21T15:10:44.854Z,79.50
2022-09-21T15:13:19.486Z,84.30
2022-09-21T15:16:06.464Z,82.70
2022-09-21T15:18:39.102Z,85.00
2022-09-21T15:21:29.567Z,83.10
2022-09-21T15:24:25.535Z,84.30
2022-09-21T15:27:06.287Z,82.10
2022-09-21T15:29:33.700Z,82.80
2022-09-21T15:32:01.011Z,81.80
2022-09-21T15:34:28.851Z,81.70
2022-09-21T15:37:06.892Z,82.30
2022-09-21T15:39:40.746Z,83.50
2022-09-21T15:42:07.643Z,82.60
2022-09-21T15:44:38.617Z,83.00
2022-09-21T15:47:15.518Z,82.40
2022-09-21T15:49:45.132Z,83.50
2022-09-21T15:52:24.134Z,84.50
2022-09-21T15:54:58.267Z,85.70
2022-09-21T15:57:39.608Z,87.80
2022-09-21T16:00:20.663Z,88.00
2022-09-21T16:03:05.514Z,86.50
2022-09-21T16:05:51.440Z,88.20
2022-09-21T16:08:33.114Z,87.60
2022-09-21T16:11:25.543Z,88.50
2022-09-21T16:14:37.639Z,88.90
2022-09-21T16:17:18.443Z,89.60
2022-09-21T16:22:43.761Z,90.70
2022-09-21T16:25:39.715Z,90.70
2022-09-21T16:28:17.552Z,91.10
2022-09-21T16:30:56.595Z,91.30
2022-09-21T16:33:36.697Z,91.70
2022-09-21T16:36:05.376Z,92.00
2022-09-21T16:38:33.103Z,91.90
2022-09-21T16:41:01.833Z,91.80
2022-09-21T16:43:31.760Z,92.00
2022-09-21T16:45:59.231Z,91.90
2022-09-21T16:48:26.066Z,92.30
2022-09-21T16:51:29.197Z,92.80
2022-09-21T16:53:59.296Z,93.30
2022-09-21T17:15:14.382Z,95.30
2022-09-21T17:17:44.107Z,95.50
2022-09-21T17:20:19.774Z,96.00
2022-09-21T17:22:50.382Z,96.00
2022-09-21T17:25:19.271Z,96.10
2022-09-21T17:28:25.245Z,96.30
2022-09-21T17:30:56.905Z,96.50
2022-09-21T17:33:25.638Z,96.70
2022-09-21T17:36:24.580Z,97.00
2022-09-21T17:38:59.315Z,97.40
2022-09-21T17:41:41.610Z,97.90
2022-09-21T17:44:40.780Z,98.20
2022-09-21T17:47:27.054Z,98.90
2022-09-21T17:50:11.691Z,99.90
2022-09-21T17:53:02.613Z,99.90
2022-09-21T17:55:31.247Z,99.90
2022-09-21T17:58:06.693Z,99.90
2022-09-21T18:01:00.100Z,99.90
2022-09-21T18:03:29.446Z,99.90
2022-09-21T18:06:02.663Z,99.90
2022-09-21T18:08:34.738Z,99.90
2022-09-21T18:11:01.530Z,99.90
2022-09-21T18:13:38.405Z,99.90
2022-09-21T18:16:21.485Z,99.90
2022-09-21T18:19:05.412Z,99.90
2022-09-21T18:21:38.869Z,99.90
2022-09-21T18:24:09.208Z,99.90
2022-09-21T18:26:39.673Z,99.90
2022-09-21T18:29:37.986Z,99.90
2022-09-21T18:32:24.583Z,99.90
2022-09-21T18:35:08.082Z,99.90
2022-09-21T18:37:43.951Z,99.90
2022-09-21T18:40:35.238Z,99.90
2022-09-21T18:43:38.503Z,99.90
2022-09-21T18:46:17.808Z,99.90
2022-09-21T18:49:38.448Z,99.90
2022-09-21T18:52:38.857Z,99.90
2022-09-21T18:55:18.560Z,99.90
2022-09-21T18:57:50.608Z,99.90
2022-09-21T19:00:39.011Z,99.90
2022-09-21T19:03:17.666Z,99.90
2022-09-21T19:06:18.429Z,99.90
2022-09-21T19:09:00.500Z,99.90
2022-09-21T19:11:40.029Z,99.90
2022-09-21T19:14:29.595Z,99.90
2022-09-21T19:17:35.141Z,99.90
2022-09-21T19:20:56.236Z,99.90
2022-09-21T19:23:44.141Z,99.90
2022-09-21T19:26:16.804Z,99.90
2022-09-21T19:28:58.517Z,99.90
2022-09-21T19:31:25.759Z,99.90
2022-09-21T19:33:53.124Z,99.90
2022-09-21T19:36:23.615Z,99.90
2022-09-21T19:38:50.455Z,99.90
2022-09-21T19:41:37.482Z,99.90
2022-09-21T19:44:29.816Z,99.90
2022-09-21T19:47:17.700Z,99.90
2022-09-21T19:49:47.992Z,99.90
2022-09-21T19:52:18.896Z,99.90
2022-09-21T19:55:07.540Z,99.90
2022-09-21T19:57:53.848Z,99.90
2022-09-21T20:00:22.000Z,99.90
2022-09-21T20:03:13.007Z,99.90
2022-09-21T20:06:17.612Z,99.90
2022-09-21T20:08:57.109Z,99.90
2022-09-21T20:11:49.766Z,99.90
2022-09-21T20:14:38.066Z,99.90
2022-09-21T20:17:09.824Z,99.90
2022-09-21T20:20:08.640Z,99.90
2022-09-21T20:22:37.512Z,99.90
2022-09-21T20:25:14.765Z,99.90
2022-09-21T20:27:50.237Z,99.90
2022-09-21T20:30:33.333Z,99.90
2022-09-21T20:33:05.404Z,99.90
2022-09-21T20:35:33.536Z,99.90
2022-09-21T20:38:02.717Z,99.90
2022-09-21T20:40:31.067Z,99.90
2022-09-21T20:43:00.416Z,99.90
2022-09-21T20:45:31.525Z,99.90
2022-09-21T20:48:12.265Z,99.90
2022-09-21T20:50:50.911Z,99.90
2022-09-21T20:53:18.505Z,99.90
2022-09-21T20:55:52.924Z,99.90
2022-09-21T21:01:10.216Z,99.90
2022-09-21T21:03:37.255Z,99.90
2022-09-21T21:06:17.997Z,99.90
2022-09-21T21:08:48.005Z,99.90
2022-09-21T21:11:21.302Z,99.90
2022-09-21T21:13:51.053Z,99.90
2022-09-21T21:16:17.758Z,99.90
2022-09-21T21:18:44.456Z,99.90
2022-09-21T21:21:42.605Z,99.90
2022-09-21T21:27:21.424Z,99.90
2022-09-21T21:29:53.216Z,99.90
2022-09-21T21:32:24.993Z,99.90
2022-09-21T21:34:52.944Z,99.90
2022-09-21T21:37:24.277Z,99.90
2022-09-21T21:39:53.854Z,99.90
2022-09-21T21:42:21.221Z,99.90
2022-09-21T21:44:49.709Z,99.90
2022-09-21T21:50:04.816Z,99.90
2022-09-21T21:52:31.489Z,99.90
2022-09-21T21:55:14.818Z,99.90
2022-09-21T21:57:41.442Z,99.90
2022-09-21T22:00:10.214Z,99.90
2022-09-21T22:02:38.232Z,99.90
2022-09-21T22:05:09.911Z,99.90
2022-09-21T22:07:37.017Z,99.90
2022-09-21T22:10:08.158Z,99.90
2022-09-21T22:12:36.064Z,99.90
2022-09-21T22:15:06.046Z,99.90
2022-09-21T22:17:32.696Z,99.90
2022-09-21T22:20:07.723Z,99.90
2022-09-21T22:22:34.538Z,99.90
2022-09-21T22:25:01.475Z,99.90
2022-09-21T22:27:28.142Z,99.90
2022-09-21T22:29:54.681Z,99.90
2022-09-21T22:32:29.188Z,99.90
2022-09-21T22:35:01.389Z,99.90
2022-09-21T22:37:35.716Z,99.90
2022-09-21T22:40:17.280Z,99.90
2022-09-21T22:42:46.747Z,99.90
2022-09-21T22:45:14.135Z,99.90
2022-09-21T22:47:40.950Z,99.90
2022-09-21T22:50:10.972Z,99.90
2022-09-21T22:52:40.097Z,99.90
2022-09-21T22:55:07.234Z,99.90
2022-09-21T22:57:36.657Z,99.90
2022-09-21T23:00:09.317Z,99.90
2022-09-21T23:02:36.090Z,99.90
2022-09-21T23:05:02.834Z,99.90
2022-09-21T23:07:29.556Z,99.90
2022-09-21T23:09:56.302Z,99.90
2022-09-21T23:12:25.121Z,99.90
2022-09-21T23:14:51.743Z,99.90
2022-09-21T23:17:27.187Z,99.90
2022-09-21T23:19:53.831Z,99.90
2022-09-21T23:22:23.603Z,99.90
2022-09-21T23:24:50.413Z,99.90
2022-09-21T23:27:17.234Z,99.90
2022-09-21T23:29:43.810Z,99.90
2022-09-21T23:32:10.585Z,99.90
2022-09-21T23:34:37.324Z,99.90
2022-09-21T23:37:04.039Z,99.90
2022-09-21T23:39:30.929Z,99.90
2022-09-21T23:41:57.976Z,99.90
2022-09-21T23:44:33.604Z,99.90
2022-09-21T23:47:00.442Z,99.90
2022-09-21T23:49:27.256Z,99.90
2022-09-21T23:51:54.290Z,99.90
2022-09-21T23:54:20.961Z,99.90
2022-09-21T23:56:47.698Z,99.90
2022-09-21T23:59:16.789Z,99.90
